Time;durP1;ratioP1;P1;durP2;ratioP2;P2;SDS_P1;SDS_P2;PMS_P1;PMS_P2;Temp;Humidity;BMP_temperature;BMP_pressure;BME280_temperature;BME280_humidity;BME280_pressure;Samples;Min_cycle;Max_cycle;Signal;HPM_P1;HPM_P2
2021/12/04 00:01:46;;;;;;;22.77;14.40;;;;;;;;;;2271201;59;21157;-76
2021/12/04 00:04:18;;;;;;;24.60;15.32;;;;;;;;;;2502652;55;21129;-76
2021/12/04 00:06:45;;;;;;;22.40;13.75;;;;;;;;;;2271621;59;21061;-76
2021/12/04 00:09:15;;;;;;;27.67;15.75;;;;;;;;;;2271131;59;21136;-76
2021/12/04 00:11:51;;;;;;;25.73;16.00;;;;;;;;;;2271663;59;21519;-76
2021/12/04 00:14:18;;;;;;;24.98;15.13;;;;;;;;;;2271323;59;21132;-76
2021/12/04 00:16:46;;;;;;;20.05;14.55;;;;;;;;;;2271289;59;21068;-76
2021/12/04 00:19:13;;;;;;;25.92;15.93;;;;;;;;;;2271282;59;21119;-76
2021/12/04 00:21:40;;;;;;;19.75;13.02;;;;;;;;;;2271681;59;21131;-76
2021/12/04 00:24:07;;;;;;;26.70;16.23;;;;;;;;;;2271594;59;21136;-76
2021/12/04 00:26:34;;;;;;;29.63;16.95;;;;;;;;;;2501901;55;21065;-76
2021/12/04 00:29:01;;;;;;;25.02;15.95;;;;;;;;;;2271107;59;21069;-76
2021/12/04 00:31:28;;;;;;;27.10;15.73;;;;;;;;;;2271402;59;21144;-76
2021/12/04 00:33:55;;;;;;;32.72;17.65;;;;;;;;;;2271342;59;21045;-76
2021/12/04 00:36:29;;;;;;;32.53;17.85;;;;;;;;;;2502582;55;21123;-76
2021/12/04 00:49:58;;;;;;;24.63;15.57;;;;;;;;;;2270986;59;21069;-76
2021/12/04 00:52:26;;;;;;;32.75;16.67;;;;;;;;;;2271934;59;21594;-76
2021/12/04 00:54:53;;;;;;;25.40;15.07;;;;;;;;;;2270778;59;21567;-76
2021/12/04 00:57:20;;;;;;;26.98;15.75;;;;;;;;;;2271525;59;21077;-76
2021/12/04 00:59:47;;;;;;;29.45;15.95;;;;;;;;;;2501697;55;21721;-76
2021/12/04 01:02:14;;;;;;;29.55;17.00;;;;;;;;;;2271528;59;21116;-76
2021/12/04 01:04:41;;;;;;;32.45;17.10;;;;;;;;;;2271479;59;21567;-76
2021/12/04 01:07:08;;;;;;;34.80;19.50;;;;;;;;;;2271228;59;21119;-76
2021/12/04 01:09:36;;;;;;;27.73;16.77;;;;;;;;;;2271199;59;21061;-76
2021/12/04 01:12:04;;;;;;;29.33;16.58;;;;;;;;;;2270247;59;21791;-76
2021/12/04 01:14:31;;;;;;;29.85;17.52;;;;;;;;;;2271519;59;21116;-76
2021/12/04 01:16:59;;;;;;;32.28;18.23;;;;;;;;;;2271192;59;21154;-76
2021/12/04 01:19:26;;;;;;;36.10;19.52;;;;;;;;;;2271180;59;21607;-76
2021/12/04 01:21:54;;;;;;;29.85;16.10;;;;;;;;;;2271540;59;21137;-76
2021/12/04 01:24:21;;;;;;;33.88;18.95;;;;;;;;;;2271327;59;21559;-76
2021/12/04 01:26:49;;;;;;;37.67;20.70;;;;;;;;;;2271641;59;21132;-76
2021/12/04 01:29:16;;;;;;;29.63;17.02;;;;;;;;;;2271017;59;21128;-76
2021/12/04 01:31:44;;;;;;;40.42;21.33;;;;;;;;;;2271495;59;21583;-76
2021/12/04 01:34:11;;;;;;;33.28;18.05;;;;;;;;;;2271298;59;21120;-76
2021/12/04 01:36:38;;;;;;;34.25;19.52;;;;;;;;;;2271509;59;21085;-76
2021/12/04 01:39:06;;;;;;;35.42;20.55;;;;;;;;;;2271120;59;21171;-76
2021/12/04 01:41:33;;;;;;;41.30;20.40;;;;;;;;;;2271107;59;21136;-75
2021/12/04 01:44:00;;;;;;;40.22;22.30;;;;;;;;;;2271318;59;21069;-75
2021/12/04 01:46:28;;;;;;;31.90;19.35;;;;;;;;;;2502143;55;21525;-76
2021/12/04 01:48:55;;;;;;;38.45;20.60;;;;;;;;;;2270846;59;21661;-76
2021/12/04 01:51:22;;;;;;;33.53;19.40;;;;;;;;;;2271764;59;21639;-76
2021/12/04 01:53:49;;;;;;;33.08;19.27;;;;;;;;;;2271382;59;21060;-76
2021/12/04 01:56:17;;;;;;;32.13;19.05;;;;;;;;;;2271599;59;21068;-76
2021/12/04 01:58:44;;;;;;;35.25;19.52;;;;;;;;;;2270455;59;21077;-75
2021/12/04 02:01:12;;;;;;;37.42;21.42;;;;;;;;;;2271685;59;21048;-76
2021/12/04 02:03:39;;;;;;;41.75;21.90;;;;;;;;;;2271168;59;21073;-76
2021/12/04 02:06:06;;;;;;;41.13;22.15;;;;;;;;;;2271637;59;21183;-76
2021/12/04 02:08:33;;;;;;;37.00;20.75;;;;;;;;;;2271587;59;21075;-76
2021/12/04 02:11:00;;;;;;;33.40;20.05;;;;;;;;;;2270805;59;21328;-75
2021/12/04 02:13:27;;;;;;;34.40;19.50;;;;;;;;;;2270996;59;21547;-75
2021/12/04 02:15:55;;;;;;;35.28;18.45;;;;;;;;;;2271378;59;21069;-75
2021/12/04 02:18:23;;;;;;;38.20;20.00;;;;;;;;;;2271332;59;21371;-75
2021/12/04 02:20:50;;;;;;;36.88;19.60;;;;;;;;;;2270961;59;21555;-75
2021/12/04 02:23:17;;;;;;;34.72;19.00;;;;;;;;;;2271532;59;21129;-75
2021/12/04 02:25:44;;;;;;;29.27;17.40;;;;;;;;;;2271669;59;21168;-75
2021/12/04 02:28:12;;;;;;;34.88;18.77;;;;;;;;;;2271444;59;21733;-73
2021/12/04 02:30:40;;;;;;;30.05;18.42;;;;;;;;;;2270924;59;21618;-76
2021/12/04 02:33:11;;;;;;;30.90;18.30;;;;;;;;;;2271329;59;21117;-75
2021/12/04 02:35:39;;;;;;;29.85;17.12;;;;;;;;;;2271722;59;21065;-75
2021/12/04 02:38:06;;;;;;;28.23;16.62;;;;;;;;;;2271510;59;21140;-75
2021/12/04 02:40:33;;;;;;;26.60;16.23;;;;;;;;;;2271155;59;21132;-76
2021/12/04 02:43:00;;;;;;;27.17;15.90;;;;;;;;;;2270734;59;21895;-75
2021/12/04 02:45:27;;;;;;;27.75;16.17;;;;;;;;;;2269070;59;21068;-75
2021/12/04 02:47:54;;;;;;;32.13;18.42;;;;;;;;;;2271027;59;21135;-73
2021/12/04 02:50:21;;;;;;;29.92;18.48;;;;;;;;;;2270393;59;21119;-75
2021/12/04 02:52:48;;;;;;;34.70;19.50;;;;;;;;;;2271548;59;21117;-75
2021/12/04 02:55:16;;;;;;;33.42;19.23;;;;;;;;;;2271448;59;21065;-74
2021/12/04 02:57:44;;;;;;;31.98;19.08;;;;;;;;;;2270999;59;21203;-75
2021/12/04 03:00:15;;;;;;;32.00;17.00;;;;;;;;;;2270757;59;21140;-74
2021/12/04 03:02:42;;;;;;;32.15;17.70;;;;;;;;;;2271242;59;21144;-74
2021/12/04 03:05:10;;;;;;;32.63;17.95;;;;;;;;;;2271692;59;21036;-76
2021/12/04 03:07:38;;;;;;;34.30;19.62;;;;;;;;;;2271034;59;21053;-76
2021/12/04 03:10:07;;;;;;;29.90;18.42;;;;;;;;;;2501616;55;21060;-75
2021/12/04 03:12:34;;;;;;;30.70;18.58;;;;;;;;;;2270952;59;21536;-74
2021/12/04 03:15:01;;;;;;;31.42;17.27;;;;;;;;;;2271001;59;21109;-75
2021/12/04 03:23:41;;;;;;;34.15;17.85;;;;;;;;;;2533511;53;65708;-78
2021/12/04 03:26:10;;;;;;;31.48;17.80;;;;;;;;;;2321850;58;21112;-77
2021/12/04 03:28:37;;;;;;;38.03;20.77;;;;;;;;;;2321173;58;21031;-77
2021/12/04 03:31:11;;;;;;;35.60;19.25;;;;;;;;;;2561207;54;21075;-77
2021/12/04 03:41:54;;;;;;;34.65;19.12;;;;;;;;;;2320394;58;21519;-77
2021/12/04 03:44:21;;;;;;;36.10;19.10;;;;;;;;;;2320336;58;21083;-77
2021/12/04 03:46:48;;;;;;;37.17;20.25;;;;;;;;;;2561605;54;21098;-77
2021/12/04 03:49:15;;;;;;;37.97;19.90;;;;;;;;;;2320475;58;21046;-77
2021/12/04 03:51:42;;;;;;;36.30;20.02;;;;;;;;;;2320900;58;21034;-77
2021/12/04 03:54:09;;;;;;;43.83;20.92;;;;;;;;;;2320508;58;21062;-76
2021/12/04 03:56:36;;;;;;;35.03;20.17;;;;;;;;;;2320599;58;21027;-77
2021/12/04 03:59:04;;;;;;;35.60;20.12;;;;;;;;;;2319963;58;21039;-74
2021/12/04 04:01:31;;;;;;;36.78;20.45;;;;;;;;;;2319986;58;21513;-76
2021/12/04 04:03:58;;;;;;;38.83;21.50;;;;;;;;;;2559771;54;21064;-77
2021/12/04 04:06:25;;;;;;;43.28;20.62;;;;;;;;;;2559850;54;21329;-77
2021/12/04 04:08:52;;;;;;;41.90;21.58;;;;;;;;;;2308386;55;21104;-84
2021/12/04 04:11:19;;;;;;;37.83;20.70;;;;;;;;;;2297643;58;21087;-83
2021/12/04 04:13:46;;;;;;;40.65;20.17;;;;;;;;;;2301749;54;21134;-84
2021/12/04 04:16:13;;;;;;;43.42;20.25;;;;;;;;;;2313998;54;21072;-85
2021/12/04 04:18:40;;;;;;;44.47;22.45;;;;;;;;;;2286172;58;21070;-84
2021/12/04 04:21:07;;;;;;;40.00;22.50;;;;;;;;;;2271149;59;21551;-83
2021/12/04 04:23:34;;;;;;;41.42;22.67;;;;;;;;;;2271387;59;21066;-84
2021/12/04 04:26:01;;;;;;;45.85;22.58;;;;;;;;;;2271376;59;21153;-84
2021/12/04 04:28:28;;;;;;;34.47;19.62;;;;;;;;;;2311701;55;21551;-83
2021/12/04 04:30:55;;;;;;;42.50;20.73;;;;;;;;;;2270850;59;21563;-83
2021/12/04 04:33:22;;;;;;;45.03;22.92;;;;;;;;;;2271418;59;21078;-84
2021/12/04 04:36:02;;;;;;;42.88;22.58;;;;;;;;;;2291189;55;21146;-84
2021/12/04 04:38:37;;;;;;;43.15;22.13;;;;;;;;;;2271741;59;21067;-85
2021/12/04 04:58:01;;;;;;;43.00;23.08;;;;;;;;;;2271126;55;21082;-83
2021/12/04 05:00:37;;;;;;;49.17;23.00;;;;;;;;;;2270959;55;21611;-83
2021/12/04 05:11:21;;;;;;;41.10;23.17;;;;;;;;;;2271601;55;21055;-84
2021/12/04 05:13:48;;;;;;;49.58;25.15;;;;;;;;;;2273870;55;21181;-84
2021/12/04 05:16:17;;;;;;;53.30;25.83;;;;;;;;;;2341324;55;21067;-82
2021/12/04 05:18:52;;;;;;;56.00;26.15;;;;;;;;;;2271350;59;21070;-80
2021/12/04 05:21:19;;;;;;;51.65;26.60;;;;;;;;;;2271409;59;21100;-83
2021/12/04 05:23:49;;;;;;;45.35;22.40;;;;;;;;;;2271065;59;21078;-82
2021/12/04 05:26:17;;;;;;;42.72;21.52;;;;;;;;;;2272838;55;21063;-82
2021/12/04 05:28:44;;;;;;;41.50;22.23;;;;;;;;;;2271110;59;22267;-81
2021/12/04 05:31:11;;;;;;;51.42;24.20;;;;;;;;;;2271057;59;21083;-82
2021/12/04 05:33:39;;;;;;;55.28;26.83;;;;;;;;;;2271179;59;21081;-84
2021/12/04 05:36:06;;;;;;;55.10;26.70;;;;;;;;;;2271437;54;21091;-82
2021/12/04 05:38:34;;;;;;;51.33;25.35;;;;;;;;;;2284773;55;21086;-83
2021/12/04 05:41:00;;;;;;;48.70;24.58;;;;;;;;;;2270928;59;21133;-83
2021/12/04 05:43:28;;;;;;;52.33;25.55;;;;;;;;;;2270970;59;21677;-84
2021/12/04 05:45:58;;;;;;;52.17;24.83;;;;;;;;;;2270977;57;21075;-83
2021/12/04 05:48:33;;;;;;;52.83;24.42;;;;;;;;;;2271151;59;21087;-83
2021/12/04 05:51:20;;;;;;;52.88;24.50;;;;;;;;;;2271380;57;21066;-81
2021/12/04 05:54:06;;;;;;;50.75;24.87;;;;;;;;;;2271276;59;21138;-84
2021/12/04 05:56:35;;;;;;;45.88;24.20;;;;;;;;;;2271115;59;21090;-84
2021/12/04 05:59:02;;;;;;;48.58;25.00;;;;;;;;;;2302135;55;21186;-83
2021/12/04 06:01:29;;;;;;;50.95;24.65;;;;;;;;;;2313201;55;21058;-83
2021/12/04 06:03:56;;;;;;;56.80;25.45;;;;;;;;;;2280664;55;21428;-85
2021/12/04 06:06:23;;;;;;;52.53;25.35;;;;;;;;;;2273404;59;21082;-84
2021/12/04 06:08:50;;;;;;;50.25;25.25;;;;;;;;;;2272470;59;21075;-85
2021/12/04 06:11:17;;;;;;;43.13;24.08;;;;;;;;;;2294181;55;21098;-84
2021/12/04 06:13:44;;;;;;;54.53;26.37;;;;;;;;;;2272974;59;21086;-84
2021/12/04 06:16:11;;;;;;;49.22;24.87;;;;;;;;;;2272922;59;21492;-84
2021/12/04 06:18:39;;;;;;;51.92;23.92;;;;;;;;;;2277129;55;21066;-83
2021/12/04 06:23:51;;;;;;;50.15;24.05;;;;;;;;;;2272791;55;21045;-85
2021/12/04 06:26:18;;;;;;;41.88;21.70;;;;;;;;;;2272999;57;21158;-85
2021/12/04 06:28:45;;;;;;;42.70;22.30;;;;;;;;;;2271991;59;21598;-83
2021/12/04 06:31:12;;;;;;;47.85;23.50;;;;;;;;;;2272083;59;21689;-84
2021/12/04 06:33:40;;;;;;;44.20;22.17;;;;;;;;;;2271365;59;21076;-83
2021/12/04 06:36:08;;;;;;;49.03;22.80;;;;;;;;;;2271937;59;21071;-83
2021/12/04 06:38:35;;;;;;;41.35;21.12;;;;;;;;;;2272012;59;21130;-84
2021/12/04 06:41:03;;;;;;;46.00;22.70;;;;;;;;;;2271701;59;21170;-85
2021/12/04 06:43:30;;;;;;;48.33;24.50;;;;;;;;;;2271057;59;21062;-85
2021/12/04 06:45:59;;;;;;;45.58;22.92;;;;;;;;;;2271791;59;21075;-83
2021/12/04 06:48:33;;;;;;;42.90;23.83;;;;;;;;;;2276035;55;21158;-84
2021/12/04 06:51:05;;;;;;;39.55;21.52;;;;;;;;;;2308922;55;21058;-84
2021/12/04 06:53:37;;;;;;;45.83;23.27;;;;;;;;;;2310929;55;21098;-85
2021/12/04 06:56:07;;;;;;;48.20;23.52;;;;;;;;;;2270763;57;21678;-83
2021/12/04 06:58:35;;;;;;;46.70;23.65;;;;;;;;;;2281755;55;21119;-83
2021/12/04 07:01:03;;;;;;;41.50;22.35;;;;;;;;;;2271008;59;21083;-83
2021/12/04 07:03:30;;;;;;;44.75;20.42;;;;;;;;;;2269718;59;21095;-83
2021/12/04 07:05:57;;;;;;;47.33;24.30;;;;;;;;;;2299837;55;21105;-84
2021/12/04 07:08:24;;;;;;;51.00;24.90;;;;;;;;;;2307551;55;21138;-84
2021/12/04 07:10:52;;;;;;;48.63;22.67;;;;;;;;;;2270042;59;21070;-81
2021/12/04 07:13:19;;;;;;;44.25;21.95;;;;;;;;;;2270447;59;21134;-83
2021/12/04 07:15:46;;;;;;;40.38;20.98;;;;;;;;;;2270318;59;21356;-82
2021/12/04 07:18:13;;;;;;;46.92;21.52;;;;;;;;;;2271304;57;21122;-82
2021/12/04 07:20:40;;;;;;;44.90;23.52;;;;;;;;;;2271182;59;21102;-83
2021/12/04 07:23:07;;;;;;;57.62;24.00;;;;;;;;;;2271664;59;21074;-84
2021/12/04 07:25:34;;;;;;;50.60;24.73;;;;;;;;;;2271515;59;21154;-83
2021/12/04 07:28:01;;;;;;;44.38;22.55;;;;;;;;;;2271270;57;21423;-82
2021/12/04 07:30:28;;;;;;;59.95;27.40;;;;;;;;;;2271631;59;21086;-84
2021/12/04 07:32:55;;;;;;;53.47;24.35;;;;;;;;;;2278074;55;21067;-83
2021/12/04 07:35:23;;;;;;;49.17;23.92;;;;;;;;;;2271800;59;21067;-82
2021/12/04 07:37:50;;;;;;;43.38;21.15;;;;;;;;;;2276934;55;21129;-83
2021/12/04 07:40:17;;;;;;;44.97;21.67;;;;;;;;;;2273139;57;21066;-83
2021/12/04 07:42:44;;;;;;;50.15;24.27;;;;;;;;;;2271621;59;21586;-83
2021/12/04 07:45:11;;;;;;;52.75;24.05;;;;;;;;;;2272125;59;21059;-83
2021/12/04 07:47:38;;;;;;;58.25;25.48;;;;;;;;;;2318139;55;21067;-83
2021/12/04 07:50:08;;;;;;;57.22;25.83;;;;;;;;;;2281640;55;21093;-82
2021/12/04 07:52:35;;;;;;;55.05;25.65;;;;;;;;;;2287299;55;21110;-83
2021/12/04 07:55:02;;;;;;;47.62;21.90;;;;;;;;;;2290509;55;21127;-83
2021/12/04 07:57:29;;;;;;;50.95;22.83;;;;;;;;;;2277068;55;21559;-84
2021/12/04 07:59:56;;;;;;;58.50;24.08;;;;;;;;;;2285403;55;21086;-82
2021/12/04 08:02:23;;;;;;;46.95;22.45;;;;;;;;;;2272403;59;21115;-83
2021/12/04 08:04:50;;;;;;;44.38;21.08;;;;;;;;;;2271839;59;21613;-84
2021/12/04 08:07:17;;;;;;;49.88;21.73;;;;;;;;;;2271690;59;21074;-81
2021/12/04 08:09:44;;;;;;;44.15;20.65;;;;;;;;;;2279515;55;21075;-82
2021/12/04 08:12:11;;;;;;;43.35;20.70;;;;;;;;;;2253921;60;21087;-83
2021/12/04 08:14:38;;;;;;;46.22;21.95;;;;;;;;;;2254216;60;21079;-84
2021/12/04 08:17:05;;;;;;;52.33;22.15;;;;;;;;;;2254567;60;21599;-84
2021/12/04 08:19:32;;;;;;;43.47;21.02;;;;;;;;;;2258860;56;21090;-83
2021/12/04 08:21:59;;;;;;;40.35;20.02;;;;;;;;;;2259092;56;21075;-85
2021/12/04 08:24:26;;;;;;;41.13;21.50;;;;;;;;;;2257084;58;21075;-85
2021/12/04 08:26:53;;;;;;;38.03;19.50;;;;;;;;;;2256804;60;21131;-85
2021/12/04 08:29:20;;;;;;;35.83;18.65;;;;;;;;;;2256628;60;21173;-86
2021/12/04 08:31:47;;;;;;;46.58;21.40;;;;;;;;;;2262547;56;21195;-86
2021/12/04 08:34:14;;;;;;;36.42;18.08;;;;;;;;;;2256644;58;21151;-86
2021/12/04 08:36:42;;;;;;;33.65;18.33;;;;;;;;;;2257107;59;21137;-84
2021/12/04 08:39:09;;;;;;;36.92;19.45;;;;;;;;;;2256442;60;21071;-87
2021/12/04 08:41:36;;;;;;;33.63;18.87;;;;;;;;;;2256925;60;21063;-85
2021/12/04 08:44:03;;;;;;;35.28;19.10;;;;;;;;;;2256745;58;21091;-85
2021/12/04 08:46:34;;;;;;;31.87;17.98;;;;;;;;;;2256104;60;21075;-85
2021/12/04 08:49:01;;;;;;;32.03;17.62;;;;;;;;;;2268055;56;21171;-87
2021/12/04 08:51:29;;;;;;;30.73;16.62;;;;;;;;;;2257338;57;21112;-85
2021/12/04 08:54:22;;;;;;;33.58;18.15;;;;;;;;;;2256886;56;21071;-85
2021/12/04 08:56:55;;;;;;;30.52;17.17;;;;;;;;;;2258047;56;21666;-86
2021/12/04 08:59:22;;;;;;;29.83;16.75;;;;;;;;;;2261055;56;21079;-87
2021/12/04 09:01:49;;;;;;;31.65;18.25;;;;;;;;;;2256721;56;21067;-86
2021/12/04 09:04:18;;;;;;;34.45;18.00;;;;;;;;;;2256593;60;21611;-85
2021/12/04 09:06:45;;;;;;;33.25;18.05;;;;;;;;;;2257071;60;21642;-86
2021/12/04 09:09:13;;;;;;;34.10;17.05;;;;;;;;;;2294066;55;21596;-84
2021/12/04 09:11:42;;;;;;;30.98;16.58;;;;;;;;;;2256479;57;21135;-85
2021/12/04 09:14:09;;;;;;;31.08;16.02;;;;;;;;;;2256461;57;21095;-86
2021/12/04 09:16:37;;;;;;;26.50;15.60;;;;;;;;;;2265960;56;21142;-86
2021/12/04 09:19:04;;;;;;;30.25;17.52;;;;;;;;;;2264934;55;21146;-86
2021/12/04 09:21:31;;;;;;;29.55;16.83;;;;;;;;;;2259952;56;21611;-85
2021/12/04 09:24:06;;;;;;;24.95;14.35;;;;;;;;;;2256781;56;21079;-84
2021/12/04 09:26:52;;;;;;;27.87;16.00;;;;;;;;;;2256900;57;21143;-86
2021/12/04 10:00:15;;;;;;;25.33;13.60;;;;;;;;;;2254268;56;21026;-84
2021/12/04 10:23:19;;;;;;;26.92;15.10;;;;;;;;;;2356227;57;21990;-75
2021/12/04 10:34:14;;;;;;;23.08;12.63;;;;;;;;;;2346334;57;21037;-76
2021/12/04 10:36:41;;;;;;;23.50;13.68;;;;;;;;;;2346176;57;21608;-76
2021/12/04 10:39:10;;;;;;;24.75;12.90;;;;;;;;;;2345899;57;21030;-76
2021/12/04 10:41:40;;;;;;;27.73;14.90;;;;;;;;;;2346422;57;21121;-76
2021/12/04 10:44:15;;;;;;;30.50;14.80;;;;;;;;;;2346291;57;21026;-76
2021/12/04 10:46:53;;;;;;;28.50;14.23;;;;;;;;;;2345070;57;21121;-76
2021/12/04 10:49:30;;;;;;;22.48;13.38;;;;;;;;;;2345348;57;21058;-76
2021/12/04 10:52:03;;;;;;;23.45;13.07;;;;;;;;;;2346510;57;21109;-75
2021/12/04 10:54:38;;;;;;;24.98;13.35;;;;;;;;;;2346553;57;21034;-76
2021/12/04 10:57:32;;;;;;;26.75;12.70;;;;;;;;;;2345773;57;21058;-76
2021/12/04 11:00:05;;;;;;;25.05;13.75;;;;;;;;;;2345771;57;21654;-76
2021/12/04 11:02:37;;;;;;;24.87;14.03;;;;;;;;;;2346335;57;21034;-76
2021/12/04 11:05:24;;;;;;;26.87;13.85;;;;;;;;;;2345699;57;21398;-76
2021/12/04 11:18:36;;;;;;;25.30;13.62;;;;;;;;;;2345628;57;21135;-76
2021/12/04 11:21:56;;;;;;;25.95;13.27;;;;;;;;;;2346073;57;21042;-76
2021/12/04 11:36:14;;;;;;;26.65;13.88;;;;;;;;;;2344442;57;20997;-77
2021/12/04 11:38:45;;;;;;;24.17;12.82;;;;;;;;;;2345223;57;21105;-76
2021/12/04 11:44:00;;;;;;;24.30;12.45;;;;;;;;;;2344274;57;21057;-76
2021/12/04 11:46:40;;;;;;;23.23;11.65;;;;;;;;;;2344498;57;21093;-76
2021/12/04 11:49:12;;;;;;;22.15;12.32;;;;;;;;;;2343977;57;21081;-76
2021/12/04 11:51:46;;;;;;;21.12;11.43;;;;;;;;;;2344373;57;21102;-76
2021/12/04 11:54:13;;;;;;;18.15;10.25;;;;;;;;;;2344600;57;21644;-76
2021/12/04 11:56:42;;;;;;;21.08;11.93;;;;;;;;;;2591825;53;21603;-77
2021/12/04 11:59:09;;;;;;;18.85;11.15;;;;;;;;;;2343779;57;21054;-76
2021/12/04 12:01:40;;;;;;;19.50;10.88;;;;;;;;;;2344927;57;21041;-78
2021/12/04 12:04:09;;;;;;;22.45;12.77;;;;;;;;;;2344936;57;21034;-77
2021/12/04 12:06:37;;;;;;;24.33;13.13;;;;;;;;;;2343685;57;21129;-76
2021/12/04 12:09:10;;;;;;;23.40;12.68;;;;;;;;;;2344473;57;21097;-76
2021/12/04 12:11:37;;;;;;;22.70;12.00;;;;;;;;;;2591381;53;21595;-76
2021/12/04 12:14:07;;;;;;;23.05;12.02;;;;;;;;;;2591584;53;21066;-78
2021/12/04 12:16:37;;;;;;;21.17;12.37;;;;;;;;;;2343293;57;21120;-79
2021/12/04 12:19:08;;;;;;;19.95;11.50;;;;;;;;;;2343420;57;21090;-77
2021/12/04 12:21:43;;;;;;;20.35;11.90;;;;;;;;;;2344740;57;21545;-77
2021/12/04 12:38:10;;;;;;;20.92;11.45;;;;;;;;;;2375034;56;20983;-76
2021/12/04 12:40:38;;;;;;;18.42;10.80;;;;;;;;;;2628012;52;21039;-77
2021/12/04 12:43:13;;;;;;;19.85;11.15;;;;;;;;;;2374589;56;21094;-76
2021/12/04 12:45:40;;;;;;;18.08;10.57;;;;;;;;;;2374621;56;21110;-76
2021/12/04 12:48:08;;;;;;;15.60;10.25;;;;;;;;;;2375000;56;21126;-76
2021/12/04 12:50:37;;;;;;;20.75;11.52;;;;;;;;;;2628328;52;21075;-76
2021/12/04 12:53:07;;;;;;;19.05;9.20;;;;;;;;;;2375604;56;21142;-76
2021/12/04 12:55:35;;;;;;;16.65;10.55;;;;;;;;;;2628719;52;21283;-75
2021/12/04 12:58:16;;;;;;;17.15;10.82;;;;;;;;;;2629222;52;21051;-77
2021/12/04 13:11:55;;;;;;;14.38;9.43;;;;;;;;;;2375465;56;21596;-76
2021/12/04 13:14:23;;;;;;;13.73;9.63;;;;;;;;;;2629646;52;21649;-77
2021/12/04 13:16:52;;;;;;;18.92;10.45;;;;;;;;;;2628979;52;21107;-75
2021/12/04 13:19:21;;;;;;;16.95;10.48;;;;;;;;;;2375077;56;21031;-77
2021/12/04 13:21:50;;;;;;;18.60;9.48;;;;;;;;;;2375194;56;21118;-76
2021/12/04 13:24:17;;;;;;;15.93;9.82;;;;;;;;;;2629258;52;21015;-77
2021/12/04 13:26:45;;;;;;;14.90;9.90;;;;;;;;;;2375450;56;21047;-77
2021/12/04 13:29:14;;;;;;;15.43;9.63;;;;;;;;;;2628378;52;21050;-76
2021/12/04 13:31:41;;;;;;;15.27;9.75;;;;;;;;;;2375158;56;21113;-75
2021/12/04 13:34:10;;;;;;;12.13;8.38;;;;;;;;;;2375138;56;21050;-77
2021/12/04 13:36:37;;;;;;;12.45;8.10;;;;;;;;;;2375407;56;21048;-77
2021/12/04 13:39:06;;;;;;;14.32;9.27;;;;;;;;;;2374202;56;21051;-78
2021/12/04 13:41:33;;;;;;;14.40;9.07;;;;;;;;;;2627324;52;21573;-77
2021/12/04 13:44:01;;;;;;;14.35;9.15;;;;;;;;;;2627298;52;21023;-76
2021/12/04 13:46:28;;;;;;;16.37;9.55;;;;;;;;;;2374150;56;21062;-77
2021/12/04 13:49:00;;;;;;;14.87;9.35;;;;;;;;;;2374091;56;21031;-76
2021/12/04 13:51:27;;;;;;;13.05;8.77;;;;;;;;;;2626174;52;21047;-77
2021/12/04 13:53:54;;;;;;;13.38;9.07;;;;;;;;;;2373669;56;21618;-76
2021/12/04 13:56:22;;;;;;;13.95;9.18;;;;;;;;;;2627904;52;21102;-78
2021/12/04 13:58:52;;;;;;;13.40;9.30;;;;;;;;;;2626590;52;21110;-77
2021/12/04 14:01:19;;;;;;;12.60;8.13;;;;;;;;;;2627919;52;21098;-77
2021/12/04 14:03:47;;;;;;;16.87;10.55;;;;;;;;;;2627486;52;21056;-76
2021/12/04 14:06:15;;;;;;;20.52;10.65;;;;;;;;;;2627972;52;21062;-78
2021/12/04 14:08:43;;;;;;;22.08;11.95;;;;;;;;;;2374313;56;21059;-75
2021/12/04 14:11:10;;;;;;;19.17;12.20;;;;;;;;;;2374255;56;21035;-74
2021/12/04 14:13:38;;;;;;;22.48;13.25;;;;;;;;;;2627512;52;21062;-76
2021/12/04 14:16:06;;;;;;;23.73;12.15;;;;;;;;;;2627825;52;21074;-77
2021/12/04 14:18:34;;;;;;;22.00;12.18;;;;;;;;;;2374170;56;21102;-76
2021/12/04 14:21:02;;;;;;;21.02;12.43;;;;;;;;;;2374300;56;21043;-76
2021/12/04 14:23:29;;;;;;;20.88;11.15;;;;;;;;;;2373971;56;21098;-76
2021/12/04 14:25:58;;;;;;;18.33;10.88;;;;;;;;;;2374094;56;21150;-76
2021/12/04 14:28:31;;;;;;;17.48;11.00;;;;;;;;;;2374345;56;21138;-78
2021/12/04 14:30:58;;;;;;;19.83;11.35;;;;;;;;;;2627592;52;21031;-76
2021/12/04 14:33:26;;;;;;;20.15;10.60;;;;;;;;;;2374346;56;21023;-75
2021/12/04 14:35:54;;;;;;;16.48;10.13;;;;;;;;;;2627771;52;21094;-76
2021/12/04 14:38:24;;;;;;;18.85;10.57;;;;;;;;;;2627354;52;21019;-76
2021/12/04 14:40:52;;;;;;;19.50;11.35;;;;;;;;;;2373536;56;21027;-77
2021/12/04 14:43:20;;;;;;;23.75;12.93;;;;;;;;;;2373497;56;21737;-77
2021/12/04 14:45:50;;;;;;;17.75;11.32;;;;;;;;;;2374342;56;21042;-76
2021/12/04 14:48:19;;;;;;;21.15;11.98;;;;;;;;;;2373507;56;21114;-76
2021/12/04 14:50:49;;;;;;;20.30;12.65;;;;;;;;;;2373208;56;21102;-76
2021/12/04 14:53:17;;;;;;;23.02;12.90;;;;;;;;;;2627618;52;21118;-78
2021/12/04 14:55:45;;;;;;;19.20;10.32;;;;;;;;;;2374294;56;21050;-77
2021/12/04 14:58:13;;;;;;;17.92;11.40;;;;;;;;;;2374239;56;21101;-77
2021/12/04 15:00:46;;;;;;;18.48;9.35;;;;;;;;;;2627115;52;21094;-77
2021/12/04 15:03:14;;;;;;;21.23;11.20;;;;;;;;;;2374360;56;21015;-76
2021/12/04 15:05:42;;;;;;;22.33;12.27;;;;;;;;;;2374094;56;21103;-76
2021/12/04 15:08:11;;;;;;;20.20;12.05;;;;;;;;;;2374078;56;21091;-76
2021/12/04 15:10:38;;;;;;;20.60;11.48;;;;;;;;;;2373920;56;21050;-76
2021/12/04 15:13:06;;;;;;;21.23;12.48;;;;;;;;;;2374459;56;21054;-77
2021/12/04 15:15:34;;;;;;;18.98;11.15;;;;;;;;;;2626795;52;21547;-77
2021/12/04 15:18:05;;;;;;;19.52;11.32;;;;;;;;;;2625562;52;21098;-76
2021/12/04 15:20:33;;;;;;;21.80;12.35;;;;;;;;;;2373245;56;21110;-76
2021/12/04 15:23:04;;;;;;;20.60;11.70;;;;;;;;;;2626984;52;21099;-77
2021/12/04 15:25:33;;;;;;;19.55;10.68;;;;;;;;;;2627207;52;21111;-76
2021/12/04 15:28:00;;;;;;;18.65;11.38;;;;;;;;;;2373581;56;21098;-76
2021/12/04 15:30:27;;;;;;;20.27;11.75;;;;;;;;;;2373368;56;21547;-77
2021/12/04 15:32:54;;;;;;;20.58;12.27;;;;;;;;;;2374442;56;21074;-76
2021/12/04 15:35:29;;;;;;;18.40;10.70;;;;;;;;;;2627728;52;21586;-76
2021/12/04 15:38:02;;;;;;;20.10;11.95;;;;;;;;;;2628442;52;21107;-75
2021/12/04 15:40:36;;;;;;;17.60;10.77;;;;;;;;;;2627290;52;21107;-76
2021/12/04 15:43:12;;;;;;;19.90;10.80;;;;;;;;;;2627179;52;21101;-76
2021/12/04 15:45:50;;;;;;;16.70;10.32;;;;;;;;;;2627710;52;21041;-76
2021/12/04 15:53:57;;;;;;;;;;;;;;;;;;2377773;56;21029;-76
2021/12/04 15:56:28;;;;;;;17.05;9.50;;;;;;;;;;2627721;52;20098;-76
2021/12/04 15:58:55;;;;;;;17.12;9.60;;;;;;;;;;2373741;56;21117;-76
2021/12/04 16:01:27;;;;;;;17.58;9.55;;;;;;;;;;2373903;56;21038;-76
2021/12/04 16:03:54;;;;;;;18.25;9.90;;;;;;;;;;2374198;56;21055;-75
2021/12/04 16:06:21;;;;;;;16.25;9.35;;;;;;;;;;2374450;56;21069;-76
2021/12/04 16:08:48;;;;;;;13.90;9.43;;;;;;;;;;2381253;54;68809;-76
2021/12/04 16:11:16;;;;;;;13.60;8.60;;;;;;;;;;2271178;59;21628;-77
2021/12/04 16:13:49;;;;;;;14.90;8.82;;;;;;;;;;2502892;55;21588;-79
2021/12/04 16:16:17;;;;;;;15.63;9.52;;;;;;;;;;2277840;58;21364;-78
2021/12/04 16:18:45;;;;;;;15.32;9.35;;;;;;;;;;2533094;54;21048;-76
2021/12/04 16:21:13;;;;;;;14.43;9.30;;;;;;;;;;2297184;58;21641;-78
2021/12/04 16:23:41;;;;;;;16.90;9.80;;;;;;;;;;2534489;54;21515;-78
2021/12/04 16:26:12;;;;;;;15.40;10.07;;;;;;;;;;2297909;58;21578;-78
2021/12/04 16:29:01;;;;;;;12.95;8.43;;;;;;;;;;2297885;58;21064;-79
2021/12/04 16:31:38;;;;;;;15.98;9.32;;;;;;;;;;2297903;58;21060;-78
2021/12/04 16:35:06;;;;;;;16.73;10.25;;;;;;;;;;2298768;58;21368;-78
2021/12/04 16:37:40;;;;;;;14.85;9.05;;;;;;;;;;2535009;54;21056;-79
2021/12/04 16:40:13;;;;;;;18.27;8.82;;;;;;;;;;2534921;54;21136;-78
2021/12/04 16:42:40;;;;;;;16.83;10.15;;;;;;;;;;2535045;54;21072;-79
2021/12/04 16:45:09;;;;;;;16.10;9.77;;;;;;;;;;2298415;58;21063;-79
2021/12/04 16:47:43;;;;;;;15.75;9.80;;;;;;;;;;2534006;54;21064;-78
2021/12/04 16:50:15;;;;;;;15.88;9.82;;;;;;;;;;2296776;58;21128;-77
2021/12/04 16:55:43;;;;;;;17.60;10.25;;;;;;;;;;2297249;58;21599;-76
2021/12/04 16:58:14;;;;;;;15.80;9.48;;;;;;;;;;2297866;58;21024;-78
2021/12/04 17:00:42;;;;;;;15.27;9.65;;;;;;;;;;2297342;58;21179;-77
2021/12/04 17:03:09;;;;;;;18.58;10.38;;;;;;;;;;2296125;58;21728;-80
2021/12/04 17:05:36;;;;;;;16.95;11.02;;;;;;;;;;2297988;58;21128;-78
2021/12/04 17:08:04;;;;;;;15.65;9.18;;;;;;;;;;2533031;54;21048;-77
2021/12/04 17:10:31;;;;;;;17.35;10.65;;;;;;;;;;2533626;54;21621;-78
2021/12/04 17:12:59;;;;;;;17.17;10.77;;;;;;;;;;2297780;58;21115;-77
2021/12/04 17:15:27;;;;;;;14.87;9.57;;;;;;;;;;2297588;58;21163;-78
2021/12/04 17:17:57;;;;;;;19.67;11.65;;;;;;;;;;2533824;54;21060;-76
2021/12/04 17:20:25;;;;;;;17.35;10.98;;;;;;;;;;2296933;58;21371;-77
2021/12/04 17:22:53;;;;;;;18.17;10.90;;;;;;;;;;2296823;58;22116;-77